createdAt,value
2022-12-23T00:02:03.327Z,8.90
2022-12-23T00:04:30.315Z,8.90
2022-12-23T00:06:57.048Z,8.90
2022-12-23T00:09:23.967Z,8.90
2022-12-23T00:12:09.252Z,8.90
2022-12-23T00:14:56.792Z,9.00
2022-12-23T00:17:24.124Z,9.00
2022-12-23T00:19:51.163Z,9.00
2022-12-23T00:22:18.216Z,9.00
2022-12-23T00:24:44.939Z,9.00
2022-12-23T00:27:11.722Z,9.00
2022-12-23T00:29:38.491Z,8.90
2022-12-23T00:32:05.424Z,8.90
2022-12-23T00:34:32.299Z,8.90
2022-12-23T00:36:59.065Z,8.90
2022-12-23T00:39:48.641Z,8.90
2022-12-23T00:42:37.568Z,8.90
2022-12-23T00:45:15.741Z,8.90
2022-12-23T00:48:06.398Z,8.90
2022-12-23T00:50:38.115Z,8.90
2022-12-23T00:53:06.455Z,8.90
2022-12-23T00:55:33.237Z,8.90
2022-12-23T00:58:00.028Z,8.90
2022-12-23T01:00:47.460Z,8.90
2022-12-23T01:03:34.210Z,8.90
2022-12-23T01:06:02.248Z,8.90
2022-12-23T01:08:29.220Z,8.90
2022-12-23T01:10:56.088Z,8.90
2022-12-23T01:13:23.394Z,8.90
2022-12-23T01:15:50.277Z,8.90
2022-12-23T01:18:17.144Z,8.90
2022-12-23T01:20:43.927Z,9.00
2022-12-23T01:23:12.095Z,8.90
2022-12-23T01:25:38.889Z,9.00
2022-12-23T01:28:05.620Z,9.00
2022-12-23T01:30:33.273Z,9.00
2022-12-23T01:33:00.680Z,9.00
2022-12-23T01:35:27.763Z,9.00
2022-12-23T01:37:54.517Z,9.00
2022-12-23T01:40:21.707Z,9.00
2022-12-23T01:42:48.683Z,9.00
2022-12-23T01:45:24.675Z,8.90
2022-12-23T01:47:57.912Z,8.90
2022-12-23T01:50:33.818Z,8.90
2022-12-23T01:53:18.852Z,8.90
2022-12-23T01:55:51.753Z,8.90
2022-12-23T01:58:24.040Z,8.90
2022-12-23T02:01:09.931Z,8.90
2022-12-23T02:03:43.163Z,8.90
2022-12-23T02:06:37.611Z,8.90
2022-12-23T02:09:24.819Z,8.90
2022-12-23T02:12:17.274Z,8.80
2022-12-23T02:15:50.235Z,8.80
2022-12-23T02:18:35.750Z,8.80
2022-12-23T02:21:33.027Z,8.80
2022-12-23T02:24:45.121Z,8.80
2022-12-23T02:27:31.796Z,8.80
2022-12-23T02:30:19.506Z,8.70
2022-12-23T02:33:15.037Z,8.70
2022-12-23T02:35:42.383Z,8.80
2022-12-23T02:38:26.310Z,8.80
2022-12-23T02:41:24.640Z,8.80
2022-12-23T02:44:08.217Z,8.80
2022-12-23T02:46:47.461Z,8.80
2022-12-23T02:49:20.838Z,8.80
2022-12-23T02:51:52.537Z,8.80
2022-12-23T02:54:27.645Z,8.80
2022-12-23T02:56:55.734Z,8.80
2022-12-23T02:59:29.554Z,8.80
2022-12-23T03:01:58.439Z,8.80
2022-12-23T03:04:25.427Z,8.80
2022-12-23T03:06:55.131Z,8.90
2022-12-23T03:09:53.510Z,8.80
2022-12-23T03:12:42.315Z,8.90
2022-12-23T03:15:37.962Z,8.90
2022-12-23T03:18:23.474Z,8.90
2022-12-23T03:21:12.723Z,8.80
2022-12-23T03:23:59.605Z,8.80
2022-12-23T03:27:00.478Z,8.80
2022-12-23T03:30:00.539Z,8.80
2022-12-23T03:32:33.347Z,8.80
2022-12-23T03:35:02.684Z,8.80
2022-12-23T03:37:32.437Z,8.80
2022-12-23T03:40:06.873Z,8.80
2022-12-23T03:42:37.989Z,8.80
2022-12-23T03:45:38.125Z,8.80
2022-12-23T03:48:22.627Z,8.80
2022-12-23T03:50:53.943Z,8.70
2022-12-23T03:53:28.077Z,8.70
2022-12-23T03:56:03.997Z,8.70
2022-12-23T03:58:43.427Z,8.70
2022-12-23T04:01:31.425Z,8.70
2022-12-23T04:04:12.915Z,8.70
2022-12-23T04:06:48.792Z,8.70
2022-12-23T04:09:21.928Z,8.70
2022-12-23T04:11:50.380Z,8.70
2022-12-23T04:14:22.306Z,8.80
2022-12-23T04:16:56.139Z,8.80
2022-12-23T04:19:23.337Z,8.80
2022-12-23T04:21:50.130Z,8.80
2022-12-23T04:24:16.880Z,8.80
2022-12-23T04:26:43.692Z,8.80
2022-12-23T04:29:10.542Z,8.80
2022-12-23T04:31:37.509Z,8.80
2022-12-23T04:34:05.118Z,8.80
2022-12-23T04:36:32.107Z,8.80
2022-12-23T04:38:59.882Z,8.80
2022-12-23T04:41:27.515Z,8.80
2022-12-23T04:43:54.637Z,8.80
2022-12-23T04:46:21.643Z,8.80
2022-12-23T04:48:48.817Z,8.90
2022-12-23T04:51:15.565Z,8.90
2022-12-23T04:53:43.161Z,8.90
2022-12-23T04:56:09.932Z,8.90
2022-12-23T04:58:36.656Z,8.90
2022-12-23T05:01:06.829Z,8.90
2022-12-23T05:03:34.017Z,8.90
2022-12-23T05:06:00.823Z,8.90
2022-12-23T05:08:27.966Z,8.90
2022-12-23T05:10:55.054Z,8.90
2022-12-23T05:13:22.307Z,9.00
2022-12-23T05:15:55.021Z,9.00
2022-12-23T05:18:22.481Z,9.00
2022-12-23T05:20:49.870Z,9.00
2022-12-23T05:23:16.672Z,9.00
2022-12-23T05:25:43.434Z,9.10
2022-12-23T05:28:13.142Z,9.20
2022-12-23T05:30:39.905Z,9.20
2022-12-23T05:33:06.678Z,9.30
2022-12-23T05:35:33.510Z,9.30
2022-12-23T05:38:02.532Z,9.30
2022-12-23T05:40:31.476Z,9.30
2022-12-23T05:43:00.162Z,9.30
2022-12-23T05:45:27.867Z,9.40
2022-12-23T05:47:54.693Z,9.40
2022-12-23T05:50:21.516Z,9.40
2022-12-23T05:52:48.844Z,9.40
2022-12-23T05:55:15.706Z,9.50
2022-12-23T05:57:42.625Z,9.50
2022-12-23T06:00:09.996Z,9.50
2022-12-23T06:02:40.427Z,9.50
2022-12-23T06:05:07.949Z,9.50
2022-12-23T06:07:34.835Z,9.50
2022-12-23T06:10:02.208Z,9.50
2022-12-23T06:12:28.934Z,9.50
2022-12-23T06:14:55.886Z,9.50
2022-12-23T06:17:23.029Z,9.50
2022-12-23T06:19:50.062Z,9.50
2022-12-23T06:22:17.860Z,9.50
2022-12-23T06:24:45.124Z,9.40
2022-12-23T06:27:11.935Z,9.40
2022-12-23T06:29:38.671Z,9.40
2022-12-23T06:32:05.692Z,9.50
2022-12-23T06:34:32.960Z,9.50
2022-12-23T06:37:00.008Z,9.50
2022-12-23T06:39:27.996Z,9.50
2022-12-23T06:41:54.825Z,9.40
2022-12-23T06:44:21.600Z,9.40
2022-12-23T06:46:48.357Z,9.40
2022-12-23T06:49:15.103Z,9.40
2022-12-23T06:51:42.180Z,9.40
2022-12-23T06:54:11.779Z,9.40
2022-12-23T06:56:38.979Z,9.40
2022-12-23T06:59:05.817Z,9.40
2022-12-23T07:01:32.764Z,9.50
2022-12-23T07:03:59.655Z,9.50
2022-12-23T07:06:26.468Z,9.50
2022-12-23T07:08:53.312Z,9.50
2022-12-23T07:11:20.068Z,9.60
2022-12-23T07:13:47.511Z,9.60
2022-12-23T07:16:14.360Z,9.60
2022-12-23T07:18:41.111Z,9.60
2022-12-23T07:21:15.558Z,9.60
2022-12-23T07:23:48.005Z,9.60
2022-12-23T07:26:14.805Z,9.60
2022-12-23T07:28:44.963Z,9.60
2022-12-23T07:31:11.764Z,9.50
2022-12-23T07:33:38.486Z,9.50
2022-12-23T07:36:19.625Z,9.50
2022-12-23T07:38:53.274Z,9.50
2022-12-23T07:41:20.154Z,9.50
2022-12-23T07:43:47.356Z,9.40
2022-12-23T07:46:14.253Z,9.40
2022-12-23T07:48:44.037Z,9.40
2022-12-23T07:51:10.845Z,9.40
2022-12-23T07:53:37.806Z,9.40
2022-12-23T07:56:04.963Z,9.40
2022-12-23T07:58:31.770Z,9.40
2022-12-23T08:01:08.169Z,9.40
2022-12-23T08:03:35.788Z,9.40
2022-12-23T08:06:04.827Z,9.50
2022-12-23T08:08:32.311Z,9.60
2022-12-23T08:11:04.429Z,9.60
2022-12-23T08:13:33.350Z,9.70
2022-12-23T08:16:02.147Z,9.70
2022-12-23T08:18:34.828Z,9.70
2022-12-23T08:21:24.061Z,9.70
2022-12-23T08:23:51.865Z,9.70
2022-12-23T08:26:21.914Z,9.70
2022-12-23T08:28:53.301Z,9.80
2022-12-23T08:31:25.825Z,9.80
2022-12-23T08:33:55.700Z,9.90
2022-12-23T08:36:29.257Z,9.90
2022-12-23T08:38:57.714Z,10.00
2022-12-23T08:41:27.703Z,10.10
2022-12-23T08:43:54.693Z,10.20
2022-12-23T08:46:22.763Z,10.30
2022-12-23T08:48:50.215Z,10.30
2022-12-23T08:51:22.013Z,10.30
2022-12-23T08:53:49.722Z,10.40
2022-12-23T08:56:21.210Z,10.40
2022-12-23T08:58:51.093Z,10.40
2022-12-23T09:01:19.768Z,10.40
2022-12-23T09:03:47.499Z,10.40
2022-12-23T09:06:18.888Z,10.40
2022-12-23T09:08:49.367Z,10.40
2022-12-23T09:11:20.210Z,10.40
2022-12-23T09:13:47.279Z,10.50
2022-12-23T09:16:14.535Z,10.50
2022-12-23T09:18:41.998Z,10.50
2022-12-23T09:21:16.452Z,10.50
2022-12-23T09:23:43.207Z,10.60
2022-12-23T09:26:11.322Z,10.60
2022-12-23T09:28:39.604Z,10.60
2022-12-23T09:31:08.695Z,10.60
2022-12-23T09:33:36.111Z,10.60
2022-12-23T09:36:18.822Z,10.70
2022-12-23T09:42:31.849Z,10.80
2022-12-23T09:45:19.801Z,10.90
2022-12-23T09:47:46.916Z,11.00
2022-12-23T09:50:21.655Z,11.10
2022-12-23T09:53:04.161Z,11.10
2022-12-23T09:55:49.836Z,11.20
2022-12-23T09:58:34.568Z,11.30
2022-12-23T10:01:24.628Z,11.40
2022-12-23T10:04:11.636Z,11.60
2022-12-23T10:06:40.989Z,11.70
2022-12-23T10:09:09.734Z,11.80
2022-12-23T10:11:42.207Z,12.00
2022-12-23T10:14:27.651Z,12.10
2022-12-23T10:17:02.188Z,12.20
2022-12-23T10:19:58.248Z,12.20
2022-12-23T10:22:44.987Z,12.20
2022-12-23T10:25:28.515Z,12.10
2022-12-23T10:27:55.547Z,12.00
2022-12-23T10:30:53.929Z,12.00
2022-12-23T10:33:24.387Z,11.90
2022-12-23T10:36:22.975Z,11.90
2022-12-23T10:39:16.597Z,11.90
2022-12-23T10:42:11.876Z,11.80
2022-12-23T10:45:14.000Z,11.80
2022-12-23T10:48:25.920Z,11.70
2022-12-23T10:51:22.996Z,11.60
2022-12-23T10:54:11.968Z,11.50
2022-12-23T10:56:59.976Z,11.50
2022-12-23T10:59:42.038Z,11.50
2022-12-23T11:02:15.806Z,11.50
2022-12-23T11:04:45.943Z,11.40
2022-12-23T11:10:18.056Z,11.50
2022-12-23T11:12:47.931Z,11.40
2022-12-23T11:15:27.233Z,11.40
2022-12-23T11:17:59.982Z,11.50
2022-12-23T11:20:27.056Z,11.50
2022-12-23T11:23:02.297Z,11.50
2022-12-23T11:25:58.219Z,11.50
2022-12-23T11:28:25.466Z,11.40
2022-12-23T11:30:58.683Z,11.40
2022-12-23T11:33:32.567Z,11.40
2022-12-23T11:36:07.791Z,11.30
2022-12-23T11:38:37.797Z,11.30
2022-12-23T11:41:05.584Z,11.20
2022-12-23T11:43:33.164Z,11.20
2022-12-23T11:46:26.831Z,11.20
2022-12-23T11:49:07.059Z,11.20
2022-12-23T11:51:33.909Z,11.10
2022-12-23T11:54:02.437Z,11.10
2022-12-23T11:56:38.300Z,11.00
2022-12-23T11:59:22.065Z,10.90
2022-12-23T12:01:49.371Z,10.90
2022-12-23T12:04:23.024Z,10.80
2022-12-23T12:06:56.353Z,10.80
2022-12-23T12:09:24.732Z,10.70
2022-12-23T12:12:12.317Z,10.70
2022-12-23T12:14:54.251Z,10.80
2022-12-23T12:17:24.291Z,10.80
2022-12-23T12:19:57.403Z,10.90
2022-12-23T12:22:35.381Z,10.90
2022-12-23T12:25:23.672Z,11.00
2022-12-23T12:27:59.748Z,11.00
2022-12-23T12:30:33.879Z,11.00
2022-12-23T12:33:13.312Z,11.00
2022-12-23T12:35:58.931Z,11.00
2022-12-23T12:38:34.653Z,11.00
2022-12-23T12:41:03.674Z,11.00
2022-12-23T12:43:31.988Z,11.00
2022-12-23T12:46:23.757Z,11.00
2022-12-23T12:49:20.268Z,11.00
2022-12-23T12:51:56.994Z,11.00
2022-12-23T12:54:45.687Z,11.00
2022-12-23T12:57:18.150Z,11.00
2022-12-23T12:59:47.200Z,11.00
2022-12-23T13:02:28.654Z,10.90
2022-12-23T13:05:18.347Z,10.90
2022-12-23T13:08:00.513Z,10.90
2022-12-23T13:10:30.925Z,10.90
2022-12-23T13:13:24.172Z,10.90
2022-12-23T13:15:53.987Z,11.00
2022-12-23T13:18:44.226Z,10.90
2022-12-23T13:21:19.227Z,10.90
2022-12-23T13:24:18.897Z,10.80
2022-12-23T13:26:59.231Z,10.80
2022-12-23T13:29:47.637Z,10.70
2022-12-23T13:32:33.946Z,10.50
2022-12-23T13:35:14.484Z,10.40
2022-12-23T13:38:23.922Z,10.30
2022-12-23T13:41:06.559Z,10.30
2022-12-23T13:43:44.653Z,10.20
2022-12-23T13:46:37.315Z,10.20
2022-12-23T13:49:24.574Z,10.10
2022-12-23T13:52:33.352Z,10.10
2022-12-23T13:55:24.480Z,10.10
2022-12-23T13:58:05.695Z,10.10
2022-12-23T14:00:34.391Z,10.10
2022-12-23T14:03:01.202Z,10.10
2022-12-23T14:05:33.880Z,10.30
2022-12-23T14:08:04.959Z,10.30
2022-12-23T14:10:32.659Z,10.30
2022-12-23T14:13:04.209Z,10.30
2022-12-23T14:15:55.495Z,10.40
2022-12-23T14:18:43.615Z,10.40
2022-12-23T14:21:29.243Z,10.30
2022-12-23T14:24:30.938Z,10.30
2022-12-23T14:27:19.508Z,10.20
2022-12-23T14:30:19.286Z,10.10
2022-12-23T14:32:53.478Z,10.20
2022-12-23T14:35:25.930Z,10.20
2022-12-23T14:38:13.715Z,10.20
2022-12-23T14:40:43.605Z,10.20
2022-12-23T14:43:22.975Z,10.20
2022-12-23T14:45:55.206Z,10.20
2022-12-23T14:48:34.448Z,10.20
2022-12-23T14:51:10.216Z,10.20
2022-12-23T14:53:58.292Z,10.20
2022-12-23T14:56:33.699Z,10.20
2022-12-23T14:59:12.491Z,10.20
2022-12-23T15:01:42.596Z,10.20
2022-12-23T15:04:24.336Z,10.20
2022-12-23T15:06:55.127Z,10.20
2022-12-23T15:09:26.223Z,10.20
2022-12-23T15:12:02.211Z,10.20
2022-12-23T15:14:38.583Z,10.30
2022-12-23T15:17:27.667Z,10.30
2022-12-23T15:20:05.569Z,10.30
2022-12-23T15:22:32.887Z,10.30
2022-12-23T15:24:59.649Z,10.30
2022-12-23T15:27:29.633Z,10.30
2022-12-23T15:29:57.179Z,10.30
2022-12-23T15:32:25.697Z,10.30
2022-12-23T15:34:55.697Z,10.20
2022-12-23T15:37:30.350Z,10.20
2022-12-23T15:40:04.856Z,10.30
2022-12-23T15:42:35.459Z,10.20
2022-12-23T15:45:23.002Z,10.20
2022-12-23T15:47:50.717Z,10.10
2022-12-23T15:50:18.554Z,10.10
2022-12-23T15:52:48.136Z,10.00
2022-12-23T15:55:25.076Z,10.00
2022-12-23T15:57:52.478Z,10.00
2022-12-23T16:00:25.023Z,10.00
2022-12-23T16:03:02.818Z,10.10
2022-12-23T16:05:34.068Z,10.10
2022-12-23T16:08:24.559Z,10.00
2022-12-23T16:11:00.960Z,10.00
2022-12-23T16:13:27.887Z,10.00
2022-12-23T16:15:55.082Z,9.90
2022-12-23T16:18:23.593Z,9.90
2022-12-23T16:20:57.675Z,9.90
2022-12-23T16:23:29.296Z,10.00
2022-12-23T16:25:58.168Z,10.00
2022-12-23T16:28:40.408Z,9.90
2022-12-23T16:31:10.456Z,9.90
2022-12-23T16:33:47.495Z,9.90
2022-12-23T16:36:37.486Z,10.00
2022-12-23T16:39:07.472Z,10.00
2022-12-23T16:41:35.001Z,10.00
2022-12-23T16:44:02.164Z,9.90
2022-12-23T16:46:34.154Z,9.90
2022-12-23T16:49:04.939Z,9.90
2022-12-23T16:51:34.058Z,9.90
2022-12-23T16:54:02.327Z,9.90
2022-12-23T16:56:36.220Z,10.00
2022-12-23T16:59:04.169Z,10.00
2022-12-23T17:01:33.996Z,10.00
2022-12-23T17:04:02.231Z,10.00
2022-12-23T17:06:38.530Z,10.10
2022-12-23T17:09:12.302Z,10.10
2022-12-23T17:11:50.740Z,10.10
2022-12-23T17:14:20.203Z,10.10
2022-12-23T17:16:47.887Z,10.10
2022-12-23T17:19:14.882Z,10.10
2022-12-23T17:21:44.436Z,10.10
2022-12-23T17:24:21.983Z,10.20
2022-12-23T17:26:49.732Z,10.30
2022-12-23T17:29:17.065Z,10.30
2022-12-23T17:31:45.381Z,10.30
2022-12-23T17:34:20.502Z,10.30
2022-12-23T17:36:50.317Z,10.10
2022-12-23T17:39:18.604Z,10.10
2022-12-23T17:41:45.612Z,10.10
2022-12-23T17:44:15.226Z,10.10
2022-12-23T17:46:42.433Z,10.10
2022-12-23T17:49:09.301Z,10.10
2022-12-23T17:51:36.337Z,10.10
2022-12-23T17:54:04.750Z,10.10
2022-12-23T17:56:31.956Z,10.10
2022-12-23T17:58:58.775Z,10.10
2022-12-23T18:01:29.649Z,10.10
2022-12-23T18:03:58.252Z,10.10
2022-12-23T18:06:27.488Z,10.10
2022-12-23T18:08:54.548Z,10.10
2022-12-23T18:11:35.112Z,10.10
2022-12-23T18:14:03.631Z,10.10
2022-12-23T18:16:30.739Z,10.10
2022-12-23T18:18:57.719Z,10.10
2022-12-23T18:21:26.704Z,10.10
2022-12-23T18:23:58.706Z,10.10
2022-12-23T18:26:25.724Z,10.10
2022-12-23T18:28:54.033Z,10.10
2022-12-23T18:31:24.165Z,10.00
2022-12-23T18:33:51.154Z,10.00
2022-12-23T18:36:24.808Z,10.00
2022-12-23T18:39:02.765Z,9.90
2022-12-23T18:41:29.576Z,9.90
2022-12-23T18:43:56.750Z,9.90
2022-12-23T18:46:23.626Z,9.90
2022-12-23T18:48:51.667Z,10.00
2022-12-23T18:51:21.255Z,10.00
2022-12-23T18:53:48.594Z,10.10
2022-12-23T18:56:20.094Z,10.20
2022-12-23T18:58:47.136Z,10.20
2022-12-23T19:01:15.700Z,10.20
2022-12-23T19:03:43.546Z,10.30
2022-12-23T19:06:13.295Z,10.40
2022-12-23T19:08:41.353Z,10.40
2022-12-23T19:11:12.984Z,10.50
2022-12-23T19:13:39.894Z,10.50
2022-12-23T19:16:07.105Z,10.50
2022-12-23T19:18:34.008Z,10.60
2022-12-23T19:21:04.342Z,10.70
2022-12-23T19:23:31.265Z,10.70
2022-12-23T19:25:58.056Z,10.70
2022-12-23T19:28:24.820Z,10.70
2022-12-23T19:30:51.696Z,10.80
2022-12-23T19:33:19.033Z,10.80
2022-12-23T19:35:45.975Z,10.90
2022-12-23T19:38:12.816Z,11.00
2022-12-23T19:40:40.140Z,11.00
2022-12-23T19:43:07.195Z,11.10
2022-12-23T19:45:33.927Z,11.10
2022-12-23T19:48:00.704Z,11.20
2022-12-23T19:50:27.822Z,11.20
2022-12-23T19:52:56.173Z,11.20
2022-12-23T19:55:23.214Z,11.20
2022-12-23T19:57:49.970Z,11.20
2022-12-23T20:00:16.817Z,11.20
2022-12-23T20:02:43.896Z,11.30
2022-12-23T20:05:10.798Z,11.30
2022-12-23T20:07:37.678Z,11.40
2022-12-23T20:10:05.551Z,11.30
2022-12-23T20:12:32.526Z,11.30
2022-12-23T20:14:59.332Z,11.20
2022-12-23T20:17:26.221Z,11.20
2022-12-23T20:19:52.982Z,11.30
2022-12-23T20:22:19.767Z,11.30
2022-12-23T20:24:46.481Z,11.30
2022-12-23T20:27:15.712Z,11.30
2022-12-23T20:29:43.082Z,11.30
2022-12-23T20:32:10.283Z,11.40
2022-12-23T20:34:40.053Z,11.40
2022-12-23T20:37:07.819Z,11.40
2022-12-23T20:39:34.786Z,11.40
2022-12-23T20:42:14.929Z,11.40
2022-12-23T20:44:48.892Z,11.40
2022-12-23T20:47:15.772Z,11.40
2022-12-23T20:49:42.540Z,11.30
2022-12-23T20:52:09.475Z,11.30
2022-12-23T20:54:36.150Z,11.30
2022-12-23T20:57:04.016Z,11.30
2022-12-23T20:59:31.196Z,11.20
2022-12-23T21:01:59.110Z,11.30
2022-12-23T21:04:26.159Z,11.30
2022-12-23T21:06:52.956Z,11.20
2022-12-23T21:09:20.006Z,11.20
2022-12-23T21:11:47.766Z,11.20
2022-12-23T21:14:15.703Z,11.20
2022-12-23T21:16:42.814Z,11.20
2022-12-23T21:19:18.120Z,11.20
2022-12-23T21:21:45.698Z,11.30
2022-12-23T21:24:12.926Z,11.30
2022-12-23T21:26:40.246Z,11.30
2022-12-23T21:29:09.062Z,11.30
2022-12-23T21:31:37.946Z,11.30
2022-12-23T21:34:05.765Z,11.30
2022-12-23T21:36:36.431Z,11.30
2022-12-23T21:39:05.045Z,11.30
2022-12-23T21:41:35.919Z,11.30
2022-12-23T21:44:03.062Z,11.30
2022-12-23T21:46:30.212Z,11.40
2022-12-23T21:48:58.677Z,11.40
2022-12-23T21:51:31.794Z,11.40
2022-12-23T21:54:05.338Z,11.40
2022-12-23T21:56:32.230Z,11.40
2022-12-23T21:59:03.138Z,11.40
2022-12-23T22:01:32.229Z,11.30
2022-12-23T22:03:59.781Z,11.30
2022-12-23T22:06:37.478Z,11.30
2022-12-23T22:09:06.703Z,11.20
2022-12-23T22:11:35.845Z,11.20
2022-12-23T22:14:08.953Z,11.20
2022-12-23T22:16:36.386Z,11.20
2022-12-23T22:19:04.931Z,11.20
2022-12-23T22:21:33.790Z,11.10
2022-12-23T22:24:02.191Z,11.20
2022-12-23T22:26:31.263Z,11.20
2022-12-23T22:29:00.787Z,11.20
2022-12-23T22:31:48.567Z,11.20
2022-12-23T22:34:21.125Z,11.10
2022-12-23T22:36:48.879Z,11.10
2022-12-23T22:39:21.018Z,11.00
2022-12-23T22:41:49.273Z,11.00
2022-12-23T22:44:16.424Z,11.00
2022-12-23T22:46:50.172Z,11.00
2022-12-23T22:49:25.021Z,11.00
2022-12-23T22:51:51.834Z,11.00
2022-12-23T22:54:18.848Z,10.90
2022-12-23T22:56:45.971Z,10.90
2022-12-23T22:59:21.559Z,10.90
2022-12-23T23:01:49.395Z,10.90
2022-12-23T23:04:16.988Z,10.80
2022-12-23T23:06:43.981Z,10.80
2022-12-23T23:09:14.931Z,10.80
2022-12-23T23:11:43.184Z,10.80
2022-12-23T23:14:11.254Z,10.80
2022-12-23T23:16:38.483Z,10.80
2022-12-23T23:19:06.601Z,10.80
2022-12-23T23:21:34.329Z,10.90
2022-12-23T23:24:03.735Z,10.90
2022-12-23T23:26:30.586Z,10.90
2022-12-23T23:28:58.481Z,10.90
2022-12-23T23:31:42.045Z,11.00
2022-12-23T23:34:14.311Z,11.00
2022-12-23T23:36:44.799Z,11.10
2022-12-23T23:39:12.901Z,11.10
2022-12-23T23:41:41.063Z,11.20
2022-12-23T23:44:07.875Z,11.20
2022-12-23T23:46:35.072Z,11.20
2022-12-23T23:49:02.861Z,11.20
2022-12-23T23:51:30.041Z,11.20
2022-12-23T23:53:56.862Z,11.10
2022-12-23T23:56:26.299Z,11.10
2022-12-23T23:58:54.573Z,11.00
